sensor_id;sensor_type;location;lat;lon;timestamp;temperature;humidity
10903;DHT22;5504;47.312;11.060;2023-06-14T00:01:44;14.10;59.30
10903;DHT22;5504;47.312;11.060;2023-06-14T00:04:14;14.10;59.00
10903;DHT22;5504;47.312;11.060;2023-06-14T00:06:42;14.10;58.80
10903;DHT22;5504;47.312;11.060;2023-06-14T00:09:11;14.10;59.30
10903;DHT22;5504;47.312;11.060;2023-06-14T00:11:39;14.10;58.70
10903;DHT22;5504;47.312;11.060;2023-06-14T00:14:05;14.10;59.20
10903;DHT22;5504;47.312;11.060;2023-06-14T00:16:31;14.10;59.80
10903;DHT22;5504;47.312;11.060;2023-06-14T00:18:59;14.10;59.60
10903;DHT22;5504;47.312;11.060;2023-06-14T00:21:24;14.10;59.50
10903;DHT22;5504;47.312;11.060;2023-06-14T00:23:50;14.10;58.70
10903;DHT22;5504;47.312;11.060;2023-06-14T00:26:16;13.90;59.30
10903;DHT22;5504;47.312;11.060;2023-06-14T00:28:41;13.90;58.80
10903;DHT22;5504;47.312;11.060;2023-06-14T00:31:07;13.70;59.40
10903;DHT22;5504;47.312;11.060;2023-06-14T00:33:33;13.70;59.90
10903;DHT22;5504;47.312;11.060;2023-06-14T00:35:59;13.70;60.20
10903;DHT22;5504;47.312;11.060;2023-06-14T00:38:24;13.80;60.10
10903;DHT22;5504;47.312;11.060;2023-06-14T00:40:50;13.90;59.70
10903;DHT22;5504;47.312;11.060;2023-06-14T00:43:16;13.90;59.20
10903;DHT22;5504;47.312;11.060;2023-06-14T00:45:42;13.90;59.40
10903;DHT22;5504;47.312;11.060;2023-06-14T00:48:08;13.80;59.10
10903;DHT22;5504;47.312;11.060;2023-06-14T00:50:34;13.50;60.00
10903;DHT22;5504;47.312;11.060;2023-06-14T00:53:02;13.30;60.30
10903;DHT22;5504;47.312;11.060;2023-06-14T00:55:28;13.40;60.20
10903;DHT22;5504;47.312;11.060;2023-06-14T00:57:55;13.40;60.40
10903;DHT22;5504;47.312;11.060;2023-06-14T01:00:21;13.30;61.40
10903;DHT22;5504;47.312;11.060;2023-06-14T01:02:47;13.20;61.90
10903;DHT22;5504;47.312;11.060;2023-06-14T01:05:14;13.20;61.90
10903;DHT22;5504;47.312;11.060;2023-06-14T01:13:15;13.20;62.70
10903;DHT22;5504;47.312;11.060;2023-06-14T01:15:44;13.20;62.70
10903;DHT22;5504;47.312;11.060;2023-06-14T01:18:09;13.10;62.10
10903;DHT22;5504;47.312;11.060;2023-06-14T01:20:43;13.20;62.90
10903;DHT22;5504;47.312;11.060;2023-06-14T01:23:11;13.10;62.30
10903;DHT22;5504;47.312;11.060;2023-06-14T01:25:39;13.30;62.20
10903;DHT22;5504;47.312;11.060;2023-06-14T01:28:10;13.30;62.00
10903;DHT22;5504;47.312;11.060;2023-06-14T01:30:39;13.10;61.10
10903;DHT22;5504;47.312;11.060;2023-06-14T01:33:13;12.80;62.60
10903;DHT22;5504;47.312;11.060;2023-06-14T01:35:47;12.70;62.60
10903;DHT22;5504;47.312;11.060;2023-06-14T01:38:15;12.80;63.60
10903;DHT22;5504;47.312;11.060;2023-06-14T01:40:47;12.80;63.50
10903;DHT22;5504;47.312;11.060;2023-06-14T01:43:15;12.70;63.90
10903;DHT22;5504;47.312;11.060;2023-06-14T01:45:42;12.70;63.80
10903;DHT22;5504;47.312;11.060;2023-06-14T01:48:11;12.60;63.20
10903;DHT22;5504;47.312;11.060;2023-06-14T01:50:37;12.40;63.90
10903;DHT22;5504;47.312;11.060;2023-06-14T01:53:09;12.40;64.20
10903;DHT22;5504;47.312;11.060;2023-06-14T01:55:35;12.50;64.60
10903;DHT22;5504;47.312;11.060;2023-06-14T01:58:03;12.60;64.70
10903;DHT22;5504;47.312;11.060;2023-06-14T02:00:29;12.60;64.30
10903;DHT22;5504;47.312;11.060;2023-06-14T02:02:55;12.50;64.70
10903;DHT22;5504;47.312;11.060;2023-06-14T02:05:21;12.50;64.70
10903;DHT22;5504;47.312;11.060;2023-06-14T02:07:47;12.50;64.20
10903;DHT22;5504;47.312;11.060;2023-06-14T02:10:13;12.50;64.50
10903;DHT22;5504;47.312;11.060;2023-06-14T02:12:40;12.50;65.50
10903;DHT22;5504;47.312;11.060;2023-06-14T02:15:06;12.50;64.90
10903;DHT22;5504;47.312;11.060;2023-06-14T02:17:32;12.50;65.60
10903;DHT22;5504;47.312;11.060;2023-06-14T02:19:58;12.40;64.90
10903;DHT22;5504;47.312;11.060;2023-06-14T02:22:24;12.30;64.80
10903;DHT22;5504;47.312;11.060;2023-06-14T02:24:50;12.30;64.90
10903;DHT22;5504;47.312;11.060;2023-06-14T02:27:16;12.40;66.00
10903;DHT22;5504;47.312;11.060;2023-06-14T02:29:42;12.40;65.30
10903;DHT22;5504;47.312;11.060;2023-06-14T02:32:08;12.30;64.70
10903;DHT22;5504;47.312;11.060;2023-06-14T02:34:34;12.30;66.00
10903;DHT22;5504;47.312;11.060;2023-06-14T02:37:01;12.20;65.90
10903;DHT22;5504;47.312;11.060;2023-06-14T02:39:28;12.20;65.50
10903;DHT22;5504;47.312;11.060;2023-06-14T02:41:54;12.20;66.50
10903;DHT22;5504;47.312;11.060;2023-06-14T02:44:24;12.20;66.30
10903;DHT22;5504;47.312;11.060;2023-06-14T02:46:53;12.20;66.00
10903;DHT22;5504;47.312;11.060;2023-06-14T02:49:20;12.20;66.00
10903;DHT22;5504;47.312;11.060;2023-06-14T02:51:45;12.30;66.90
10903;DHT22;5504;47.312;11.060;2023-06-14T02:54:11;12.30;67.10
10903;DHT22;5504;47.312;11.060;2023-06-14T02:56:36;12.30;66.80
10903;DHT22;5504;47.312;11.060;2023-06-14T02:59:02;12.30;66.50
10903;DHT22;5504;47.312;11.060;2023-06-14T03:01:28;12.30;67.00
10903;DHT22;5504;47.312;11.060;2023-06-14T03:04:03;12.30;67.20
10903;DHT22;5504;47.312;11.060;2023-06-14T03:06:29;12.20;66.00
10903;DHT22;5504;47.312;11.060;2023-06-14T03:08:59;12.10;66.40
10903;DHT22;5504;47.312;11.060;2023-06-14T03:11:26;12.00;66.30
10903;DHT22;5504;47.312;11.060;2023-06-14T03:13:52;12.00;67.10
10903;DHT22;5504;47.312;11.060;2023-06-14T03:16:19;12.10;67.80
10903;DHT22;5504;47.312;11.060;2023-06-14T03:18:49;12.10;68.80
10903;DHT22;5504;47.312;11.060;2023-06-14T03:21:15;12.10;67.40
10903;DHT22;5504;47.312;11.060;2023-06-14T03:23:42;12.30;67.20
10903;DHT22;5504;47.312;11.060;2023-06-14T03:26:08;12.30;67.40
10903;DHT22;5504;47.312;11.060;2023-06-14T03:28:34;12.30;66.60
10903;DHT22;5504;47.312;11.060;2023-06-14T03:31:00;12.20;67.20
10903;DHT22;5504;47.312;11.060;2023-06-14T03:33:26;12.20;67.60
10903;DHT22;5504;47.312;11.060;2023-06-14T03:35:52;12.20;67.00
10903;DHT22;5504;47.312;11.060;2023-06-14T03:38:18;12.20;66.50
10903;DHT22;5504;47.312;11.060;2023-06-14T03:40:44;12.10;67.50
10903;DHT22;5504;47.312;11.060;2023-06-14T03:43:10;12.10;68.20
10903;DHT22;5504;47.312;11.060;2023-06-14T03:45:36;12.00;68.90
10903;DHT22;5504;47.312;11.060;2023-06-14T03:48:02;12.10;69.10
10903;DHT22;5504;47.312;11.060;2023-06-14T03:50:28;12.20;70.50
10903;DHT22;5504;47.312;11.060;2023-06-14T03:52:53;12.30;69.40
10903;DHT22;5504;47.312;11.060;2023-06-14T03:55:20;12.40;66.70
10903;DHT22;5504;47.312;11.060;2023-06-14T03:57:45;12.60;67.20
10903;DHT22;5504;47.312;11.060;2023-06-14T04:00:11;12.50;67.00
10903;DHT22;5504;47.312;11.060;2023-06-14T04:02:38;12.50;69.00
10903;DHT22;5504;47.312;11.060;2023-06-14T04:05:04;12.50;69.40
10903;DHT22;5504;47.312;11.060;2023-06-14T04:07:34;12.70;70.70
10903;DHT22;5504;47.312;11.060;2023-06-14T04:10:06;12.70;70.40
10903;DHT22;5504;47.312;11.060;2023-06-14T04:12:33;12.80;70.60
10903;DHT22;5504;47.312;11.060;2023-06-14T04:14:58;12.90;70.60
10903;DHT22;5504;47.312;11.060;2023-06-14T04:17:24;12.90;67.20
10903;DHT22;5504;47.312;11.060;2023-06-14T04:19:50;13.00;66.40
10903;DHT22;5504;47.312;11.060;2023-06-14T04:22:16;13.00;66.50
10903;DHT22;5504;47.312;11.060;2023-06-14T04:24:41;13.10;67.10
10903;DHT22;5504;47.312;11.060;2023-06-14T04:27:08;13.30;67.30
10903;DHT22;5504;47.312;11.060;2023-06-14T04:29:33;13.50;67.10
10903;DHT22;5504;47.312;11.060;2023-06-14T04:31:59;13.70;67.00
10903;DHT22;5504;47.312;11.060;2023-06-14T04:34:28;13.70;66.60
10903;DHT22;5504;47.312;11.060;2023-06-14T04:36:59;13.80;66.40
10903;DHT22;5504;47.312;11.060;2023-06-14T04:39:26;13.80;68.50
10903;DHT22;5504;47.312;11.060;2023-06-14T04:41:53;13.80;69.00
10903;DHT22;5504;47.312;11.060;2023-06-14T04:44:23;14.10;68.60
10903;DHT22;5504;47.312;11.060;2023-06-14T04:46:56;14.20;68.40
10903;DHT22;5504;47.312;11.060;2023-06-14T04:49:24;14.20;67.90
10903;DHT22;5504;47.312;11.060;2023-06-14T04:51:50;14.30;68.20
10903;DHT22;5504;47.312;11.060;2023-06-14T04:54:23;14.40;68.30
10903;DHT22;5504;47.312;11.060;2023-06-14T04:56:50;14.50;68.50
10903;DHT22;5504;47.312;11.060;2023-06-14T04:59:16;14.60;66.90
10903;DHT22;5504;47.312;11.060;2023-06-14T05:01:43;14.60;66.30
10903;DHT22;5504;47.312;11.060;2023-06-14T05:04:14;14.60;67.00
10903;DHT22;5504;47.312;11.060;2023-06-14T05:06:44;14.50;67.80
10903;DHT22;5504;47.312;11.060;2023-06-14T05:09:15;14.50;69.00
10903;DHT22;5504;47.312;11.060;2023-06-14T05:11:45;14.60;69.10
10903;DHT22;5504;47.312;11.060;2023-06-14T05:14:11;14.80;68.80
10903;DHT22;5504;47.312;11.060;2023-06-14T05:16:37;15.10;67.20
10903;DHT22;5504;47.312;11.060;2023-06-14T05:19:04;15.50;65.90
10903;DHT22;5504;47.312;11.060;2023-06-14T05:21:31;15.70;65.90
10903;DHT22;5504;47.312;11.060;2023-06-14T05:23:59;15.90;65.40
10903;DHT22;5504;47.312;11.060;2023-06-14T05:26:24;16.30;63.10
10903;DHT22;5504;47.312;11.060;2023-06-14T05:28:54;16.60;61.10
10903;DHT22;5504;47.312;11.060;2023-06-14T05:31:25;16.50;58.00
10903;DHT22;5504;47.312;11.060;2023-06-14T05:33:51;16.70;60.40
10903;DHT22;5504;47.312;11.060;2023-06-14T05:36:17;16.90;59.70
10903;DHT22;5504;47.312;11.060;2023-06-14T05:38:43;17.20;59.40
10903;DHT22;5504;47.312;11.060;2023-06-14T05:41:09;17.30;57.60
10903;DHT22;5504;47.312;11.060;2023-06-14T05:43:34;16.50;55.80
10903;DHT22;5504;47.312;11.060;2023-06-14T05:46:00;15.90;56.90
10903;DHT22;5504;47.312;11.060;2023-06-14T05:48:26;16.40;59.80
10903;DHT22;5504;47.312;11.060;2023-06-14T05:50:51;16.50;57.50
10903;DHT22;5504;47.312;11.060;2023-06-14T05:53:17;17.10;59.70
10903;DHT22;5504;47.312;11.060;2023-06-14T05:55:43;17.60;58.80
10903;DHT22;5504;47.312;11.060;2023-06-14T05:58:09;18.10;58.70
10903;DHT22;5504;47.312;11.060;2023-06-14T06:00:36;18.10;55.40
10903;DHT22;5504;47.312;11.060;2023-06-14T06:03:02;17.90;54.70
10903;DHT22;5504;47.312;11.060;2023-06-14T06:05:27;17.60;54.90
10903;DHT22;5504;47.312;11.060;2023-06-14T06:07:53;17.50;55.70
10903;DHT22;5504;47.312;11.060;2023-06-14T06:10:19;17.30;52.90
10903;DHT22;5504;47.312;11.060;2023-06-14T06:12:44;17.30;55.10
10903;DHT22;5504;47.312;11.060;2023-06-14T06:15:12;17.70;55.00
10903;DHT22;5504;47.312;11.060;2023-06-14T06:17:38;17.60;53.40
10903;DHT22;5504;47.312;11.060;2023-06-14T06:20:05;17.90;55.60
10903;DHT22;5504;47.312;11.060;2023-06-14T06:22:33;18.00;55.40
10903;DHT22;5504;47.312;11.060;2023-06-14T06:24:59;18.70;57.10
10903;DHT22;5504;47.312;11.060;2023-06-14T06:27:25;19.40;54.00
10903;DHT22;5504;47.312;11.060;2023-06-14T06:29:51;19.20;52.80
10903;DHT22;5504;47.312;11.060;2023-06-14T06:32:17;19.70;54.30
10903;DHT22;5504;47.312;11.060;2023-06-14T06:34:43;19.70;52.20
10903;DHT22;5504;47.312;11.060;2023-06-14T06:37:09;19.80;50.00
10903;DHT22;5504;47.312;11.060;2023-06-14T06:39:34;19.50;51.10
10903;DHT22;5504;47.312;11.060;2023-06-14T06:42:00;19.60;51.90
10903;DHT22;5504;47.312;11.060;2023-06-14T06:44:26;19.60;52.20
10903;DHT22;5504;47.312;11.060;2023-06-14T06:46:52;20.40;53.00
10903;DHT22;5504;47.312;11.060;2023-06-14T06:49:17;20.00;49.20
10903;DHT22;5504;47.312;11.060;2023-06-14T06:51:43;20.10;50.00
10903;DHT22;5504;47.312;11.060;2023-06-14T06:54:10;18.80;49.60
10903;DHT22;5504;47.312;11.060;2023-06-14T06:56:36;19.40;52.80
10903;DHT22;5504;47.312;11.060;2023-06-14T06:59:01;20.30;51.10
10903;DHT22;5504;47.312;11.060;2023-06-14T07:01:27;21.10;54.20
10903;DHT22;5504;47.312;11.060;2023-06-14T07:03:54;21.80;51.20
10903;DHT22;5504;47.312;11.060;2023-06-14T07:06:21;22.40;50.40
10903;DHT22;5504;47.312;11.060;2023-06-14T07:08:46;22.70;49.00
10903;DHT22;5504;47.312;11.060;2023-06-14T07:11:14;22.90;47.90
10903;DHT22;5504;47.312;11.060;2023-06-14T07:13:40;23.00;48.60
10903;DHT22;5504;47.312;11.060;2023-06-14T07:16:06;23.00;48.80
10903;DHT22;5504;47.312;11.060;2023-06-14T07:18:32;22.80;46.40
10903;DHT22;5504;47.312;11.060;2023-06-14T07:20:57;23.10;48.50
10903;DHT22;5504;47.312;11.060;2023-06-14T07:23:23;22.30;46.70
10903;DHT22;5504;47.312;11.060;2023-06-14T07:25:49;21.90;47.80
10903;DHT22;5504;47.312;11.060;2023-06-14T07:28:17;22.80;50.50
10903;DHT22;5504;47.312;11.060;2023-06-14T07:30:43;21.30;45.90
10903;DHT22;5504;47.312;11.060;2023-06-14T07:33:09;21.10;48.00
10903;DHT22;5504;47.312;11.060;2023-06-14T07:35:35;21.90;51.40
10903;DHT22;5504;47.312;11.060;2023-06-14T07:38:01;21.90;46.40
10903;DHT22;5504;47.312;11.060;2023-06-14T07:40:27;22.00;47.80
10903;DHT22;5504;47.312;11.060;2023-06-14T07:42:53;22.60;48.40
10903;DHT22;5504;47.312;11.060;2023-06-14T07:45:20;22.80;46.10
10903;DHT22;5504;47.312;11.060;2023-06-14T07:47:46;22.80;45.20
10903;DHT22;5504;47.312;11.060;2023-06-14T07:50:11;23.70;49.00
10903;DHT22;5504;47.312;11.060;2023-06-14T07:52:39;24.40;47.40
10903;DHT22;5504;47.312;11.060;2023-06-14T07:55:05;23.50;44.20
10903;DHT22;5504;47.312;11.060;2023-06-14T07:57:31;23.70;49.30
10903;DHT22;5504;47.312;11.060;2023-06-14T07:59:57;24.30;46.50
10903;DHT22;5504;47.312;11.060;2023-06-14T08:02:22;24.30;43.10
10903;DHT22;5504;47.312;11.060;2023-06-14T08:04:48;24.30;44.60
10903;DHT22;5504;47.312;11.060;2023-06-14T08:07:14;24.70;44.30
10903;DHT22;5504;47.312;11.060;2023-06-14T08:09:40;25.30;47.40
10903;DHT22;5504;47.312;11.060;2023-06-14T08:12:06;23.10;44.20
10903;DHT22;5504;47.312;11.060;2023-06-14T08:14:35;22.60;44.80
10903;DHT22;5504;47.312;11.060;2023-06-14T08:17:01;23.20;44.50
10903;DHT22;5504;47.312;11.060;2023-06-14T08:19:27;24.20;47.20
10903;DHT22;5504;47.312;11.060;2023-06-14T08:21:53;24.70;44.40
10903;DHT22;5504;47.312;11.060;2023-06-14T08:24:23;25.10;44.00
10903;DHT22;5504;47.312;11.060;2023-06-14T08:26:55;25.80;48.50
10903;DHT22;5504;47.312;11.060;2023-06-14T08:29:22;26.10;45.40
10903;DHT22;5504;47.312;11.060;2023-06-14T08:31:48;26.00;41.50
10903;DHT22;5504;47.312;11.060;2023-06-14T08:34:13;25.20;46.00
10903;DHT22;5504;47.312;11.060;2023-06-14T08:36:39;25.50;45.00
10903;DHT22;5504;47.312;11.060;2023-06-14T08:39:05;25.50;42.50
10903;DHT22;5504;47.312;11.060;2023-06-14T08:41:31;26.30;43.10
10903;DHT22;5504;47.312;11.060;2023-06-14T08:43:57;26.70;42.60
10903;DHT22;5504;47.312;11.060;2023-06-14T08:46:26;27.40;42.00
10903;DHT22;5504;47.312;11.060;2023-06-14T08:48:55;27.50;40.50
10903;DHT22;5504;47.312;11.060;2023-06-14T08:51:25;27.70;42.20
10903;DHT22;5504;47.312;11.060;2023-06-14T08:53:55;27.40;40.60
10903;DHT22;5504;47.312;11.060;2023-06-14T08:56:27;27.50;39.00
10903;DHT22;5504;47.312;11.060;2023-06-14T08:58:55;27.80;38.00
10903;DHT22;5504;47.312;11.060;2023-06-14T09:01:22;27.60;39.60
10903;DHT22;5504;47.312;11.060;2023-06-14T09:03:49;27.60;39.20
10903;DHT22;5504;47.312;11.060;2023-06-14T09:06:15;28.20;39.70
10903;DHT22;5504;47.312;11.060;2023-06-14T09:08:44;28.50;39.50
10903;DHT22;5504;47.312;11.060;2023-06-14T09:11:11;27.80;34.80
10903;DHT22;5504;47.312;11.060;2023-06-14T09:13:38;28.20;38.60
10903;DHT22;5504;47.312;11.060;2023-06-14T09:16:05;28.40;39.10
10903;DHT22;5504;47.312;11.060;2023-06-14T09:18:42;27.80;35.80
10903;DHT22;5504;47.312;11.060;2023-06-14T09:21:14;27.70;38.70
10903;DHT22;5504;47.312;11.060;2023-06-14T09:23:47;27.90;40.10
10903;DHT22;5504;47.312;11.060;2023-06-14T09:26:19;28.60;40.70
10903;DHT22;5504;47.312;11.060;2023-06-14T09:28:47;28.80;35.90
10903;DHT22;5504;47.312;11.060;2023-06-14T09:31:14;29.00;40.00
10903;DHT22;5504;47.312;11.060;2023-06-14T09:33:47;29.00;39.00
10903;DHT22;5504;47.312;11.060;2023-06-14T09:36:22;29.40;38.10
10903;DHT22;5504;47.312;11.060;2023-06-14T09:39:03;29.40;40.80
10903;DHT22;5504;47.312;11.060;2023-06-14T09:41:35;28.90;35.10
10903;DHT22;5504;47.312;11.060;2023-06-14T09:44:03;26.30;34.80
10903;DHT22;5504;47.312;11.060;2023-06-14T09:46:31;25.80;37.30
10903;DHT22;5504;47.312;11.060;2023-06-14T09:49:00;27.20;41.20
10903;DHT22;5504;47.312;11.060;2023-06-14T09:51:27;28.30;41.30
10903;DHT22;5504;47.312;11.060;2023-06-14T09:53:58;29.00;40.30
10903;DHT22;5504;47.312;11.060;2023-06-14T09:56:31;28.70;38.00
10903;DHT22;5504;47.312;11.060;2023-06-14T09:58:59;29.10;37.10
10903;DHT22;5504;47.312;11.060;2023-06-14T10:01:26;29.10;37.40
10903;DHT22;5504;47.312;11.060;2023-06-14T10:04:02;27.70;36.30
10903;DHT22;5504;47.312;11.060;2023-06-14T10:06:29;28.80;40.50
10903;DHT22;5504;47.312;11.060;2023-06-14T10:08:57;29.30;39.30
10903;DHT22;5504;47.312;11.060;2023-06-14T10:11:26;29.70;37.60
10903;DHT22;5504;47.312;11.060;2023-06-14T10:13:52;30.10;37.20
10903;DHT22;5504;47.312;11.060;2023-06-14T10:21:49;29.20;38.20
10903;DHT22;5504;47.312;11.060;2023-06-14T10:24:19;29.20;37.90
10903;DHT22;5504;47.312;11.060;2023-06-14T10:26:53;29.70;40.60
10903;DHT22;5504;47.312;11.060;2023-06-14T10:29:19;30.20;38.10
10903;DHT22;5504;47.312;11.060;2023-06-14T10:31:49;30.30;36.90
10903;DHT22;5504;47.312;11.060;2023-06-14T10:34:25;30.70;40.70
10903;DHT22;5504;47.312;11.060;2023-06-14T10:37:11;30.60;36.10
10903;DHT22;5504;47.312;11.060;2023-06-14T10:39:43;30.60;37.00
10903;DHT22;5504;47.312;11.060;2023-06-14T10:42:12;30.90;38.50
10903;DHT22;5504;47.312;11.060;2023-06-14T10:44:40;30.70;39.20
10903;DHT22;5504;47.312;11.060;2023-06-14T10:47:11;29.20;36.20
10903;DHT22;5504;47.312;11.060;2023-06-14T10:49:47;30.00;38.80
10903;DHT22;5504;47.312;11.060;2023-06-14T10:52:20;30.60;40.50
10903;DHT22;5504;47.312;11.060;2023-06-14T10:55:02;29.90;35.70
10903;DHT22;5504;47.312;11.060;2023-06-14T10:58:07;30.80;40.40
10903;DHT22;5504;47.312;11.060;2023-06-14T11:00:28;30.40;36.40
10903;DHT22;5504;47.312;11.060;2023-06-14T11:10:43;29.90;34.80
10903;DHT22;5504;47.312;11.060;2023-06-14T11:13:11;28.20;34.90
10903;DHT22;5504;47.312;11.060;2023-06-14T11:15:38;29.30;39.20
10903;DHT22;5504;47.312;11.060;2023-06-14T11:18:08;29.90;38.30
10903;DHT22;5504;47.312;11.060;2023-06-14T11:20:36;30.60;39.50
10903;DHT22;5504;47.312;11.060;2023-06-14T11:23:02;31.10;36.40
10903;DHT22;5504;47.312;11.060;2023-06-14T11:25:28;30.20;38.20
10903;DHT22;5504;47.312;11.060;2023-06-14T11:27:54;30.70;38.60
10903;DHT22;5504;47.312;11.060;2023-06-14T11:30:25;31.10;37.30
10903;DHT22;5504;47.312;11.060;2023-06-14T11:32:53;30.70;35.50
10903;DHT22;5504;47.312;11.060;2023-06-14T11:35:22;30.10;35.90
10903;DHT22;5504;47.312;11.060;2023-06-14T11:37:49;30.30;32.00
10903;DHT22;5504;47.312;11.060;2023-06-14T11:40:17;28.90;32.60
10903;DHT22;5504;47.312;11.060;2023-06-14T11:42:43;29.10;37.90
10903;DHT22;5504;47.312;11.060;2023-06-14T11:45:10;30.60;38.30
10903;DHT22;5504;47.312;11.060;2023-06-14T11:47:38;31.60;35.50
10903;DHT22;5504;47.312;11.060;2023-06-14T11:50:06;31.00;31.40
10903;DHT22;5504;47.312;11.060;2023-06-14T11:52:33;31.10;35.20
10903;DHT22;5504;47.312;11.060;2023-06-14T11:54:59;31.50;33.90
10903;DHT22;5504;47.312;11.060;2023-06-14T11:57:26;31.70;33.40
10903;DHT22;5504;47.312;11.060;2023-06-14T11:59:52;31.10;33.10
10903;DHT22;5504;47.312;11.060;2023-06-14T12:02:21;31.00;30.90
10903;DHT22;5504;47.312;11.060;2023-06-14T12:04:47;31.60;31.90
10903;DHT22;5504;47.312;11.060;2023-06-14T12:07:17;31.60;30.00
10903;DHT22;5504;47.312;11.060;2023-06-14T12:12:26;31.50;30.70
10903;DHT22;5504;47.312;11.060;2023-06-14T12:14:52;31.20;29.90
10903;DHT22;5504;47.312;11.060;2023-06-14T12:17:18;31.40;31.30
10903;DHT22;5504;47.312;11.060;2023-06-14T12:19:46;31.60;31.10
10903;DHT22;5504;47.312;11.060;2023-06-14T12:22:12;32.00;30.30
10903;DHT22;5504;47.312;11.060;2023-06-14T12:24:39;31.20;29.40
10903;DHT22;5504;47.312;11.060;2023-06-14T12:27:05;31.40;30.60
10903;DHT22;5504;47.312;11.060;2023-06-14T12:29:34;31.50;31.20
10903;DHT22;5504;47.312;11.060;2023-06-14T12:32:00;31.90;33.60
10903;DHT22;5504;47.312;11.060;2023-06-14T12:34:28;31.70;30.90
10903;DHT22;5504;47.312;11.060;2023-06-14T12:36:54;31.30;29.80
10903;DHT22;5504;47.312;11.060;2023-06-14T12:39:20;30.40;32.90
10903;DHT22;5504;47.312;11.060;2023-06-14T12:41:47;30.10;33.60
10903;DHT22;5504;47.312;11.060;2023-06-14T12:44:14;30.40;33.00
10903;DHT22;5504;47.312;11.060;2023-06-14T12:46:41;30.70;34.40
10903;DHT22;5504;47.312;11.060;2023-06-14T12:49:11;30.50;34.70
10903;DHT22;5504;47.312;11.060;2023-06-14T12:51:38;29.70;31.80
10903;DHT22;5504;47.312;11.060;2023-06-14T12:54:04;29.30;33.50
10903;DHT22;5504;47.312;11.060;2023-06-14T12:56:30;29.20;34.50
10903;DHT22;5504;47.312;11.060;2023-06-14T12:58:55;29.90;37.00
10903;DHT22;5504;47.312;11.060;2023-06-14T13:01:21;30.00;35.50
10903;DHT22;5504;47.312;11.060;2023-06-14T13:03:47;29.70;34.10
10903;DHT22;5504;47.312;11.060;2023-06-14T13:06:13;30.00;35.40
10903;DHT22;5504;47.312;11.060;2023-06-14T13:08:39;30.30;34.10
10903;DHT22;5504;47.312;11.060;2023-06-14T13:11:05;30.20;34.20
10903;DHT22;5504;47.312;11.060;2023-06-14T13:13:30;29.80;35.10
10903;DHT22;5504;47.312;11.060;2023-06-14T13:15:57;30.00;36.70
10903;DHT22;5504;47.312;11.060;2023-06-14T13:18:22;29.60;36.60
10903;DHT22;5504;47.312;11.060;2023-06-14T13:20:48;29.50;35.50
10903;DHT22;5504;47.312;11.060;2023-06-14T13:23:16;29.70;36.20
10903;DHT22;5504;47.312;11.060;2023-06-14T13:25:43;29.70;36.20
10903;DHT22;5504;47.312;11.060;2023-06-14T13:28:09;29.80;37.50
10903;DHT22;5504;47.312;11.060;2023-06-14T13:30:35;30.10;36.80
10903;DHT22;5504;47.312;11.060;2023-06-14T13:33:01;30.30;35.30
10903;DHT22;5504;47.312;11.060;2023-06-14T13:35:27;29.90;34.30
10903;DHT22;5504;47.312;11.060;2023-06-14T13:37:53;29.60;35.70
10903;DHT22;5504;47.312;11.060;2023-06-14T13:40:18;29.30;35.30
10903;DHT22;5504;47.312;11.060;2023-06-14T13:42:45;29.60;36.10
10903;DHT22;5504;47.312;11.060;2023-06-14T13:45:14;29.20;36.80
10903;DHT22;5504;47.312;11.060;2023-06-14T13:47:40;29.10;35.60
10903;DHT22;5504;47.312;11.060;2023-06-14T13:50:06;29.30;37.00
10903;DHT22;5504;47.312;11.060;2023-06-14T13:52:32;29.60;35.50
10903;DHT22;5504;47.312;11.060;2023-06-14T13:54:58;29.50;36.10
10903;DHT22;5504;47.312;11.060;2023-06-14T13:57:24;29.20;35.60
10903;DHT22;5504;47.312;11.060;2023-06-14T13:59:49;29.20;36.20
10903;DHT22;5504;47.312;11.060;2023-06-14T14:02:15;29.10;35.50
10903;DHT22;5504;47.312;11.060;2023-06-14T14:04:41;28.70;36.20
10903;DHT22;5504;47.312;11.060;2023-06-14T14:07:07;28.70;36.80
10903;DHT22;5504;47.312;11.060;2023-06-14T14:09:34;28.30;36.80
10903;DHT22;5504;47.312;11.060;2023-06-14T14:12:04;28.20;38.20
10903;DHT22;5504;47.312;11.060;2023-06-14T14:14:32;28.00;36.60
10903;DHT22;5504;47.312;11.060;2023-06-14T14:16:58;28.10;37.30
10903;DHT22;5504;47.312;11.060;2023-06-14T14:19:24;28.00;38.00
10903;DHT22;5504;47.312;11.060;2023-06-14T14:21:49;28.00;37.30
10903;DHT22;5504;47.312;11.060;2023-06-14T14:24:15;28.10;38.00
10903;DHT22;5504;47.312;11.060;2023-06-14T14:26:41;28.20;37.70
10903;DHT22;5504;47.312;11.060;2023-06-14T14:29:07;28.10;37.60
10903;DHT22;5504;47.312;11.060;2023-06-14T14:31:34;28.10;38.20
10903;DHT22;5504;47.312;11.060;2023-06-14T14:33:59;28.00;37.50
10903;DHT22;5504;47.312;11.060;2023-06-14T14:36:25;27.60;37.10
10903;DHT22;5504;47.312;11.060;2023-06-14T14:38:51;27.50;37.20
10903;DHT22;5504;47.312;11.060;2023-06-14T14:41:20;27.30;37.50
10903;DHT22;5504;47.312;11.060;2023-06-14T14:43:45;27.10;37.80
10903;DHT22;5504;47.312;11.060;2023-06-14T14:46:11;27.40;38.10
10903;DHT22;5504;47.312;11.060;2023-06-14T14:48:37;27.40;38.50
10903;DHT22;5504;47.312;11.060;2023-06-14T14:51:02;27.50;38.20
10903;DHT22;5504;47.312;11.060;2023-06-14T14:53:28;27.60;38.70
10903;DHT22;5504;47.312;11.060;2023-06-14T14:55:54;27.40;37.90
10903;DHT22;5504;47.312;11.060;2023-06-14T14:58:20;27.10;38.00
10903;DHT22;5504;47.312;11.060;2023-06-14T15:00:46;26.40;38.00
10903;DHT22;5504;47.312;11.060;2023-06-14T15:03:13;26.00;38.30
10903;DHT22;5504;47.312;11.060;2023-06-14T15:05:38;25.90;38.90
10903;DHT22;5504;47.312;11.060;2023-06-14T15:08:05;26.30;39.40
10903;DHT22;5504;47.312;11.060;2023-06-14T15:10:36;26.40;38.80
10903;DHT22;5504;47.312;11.060;2023-06-14T15:13:01;26.60;39.60
10903;DHT22;5504;47.312;11.060;2023-06-14T15:15:27;26.90;39.80
10903;DHT22;5504;47.312;11.060;2023-06-14T15:17:53;27.10;39.10
10903;DHT22;5504;47.312;11.060;2023-06-14T15:20:18;26.90;37.90
10903;DHT22;5504;47.312;11.060;2023-06-14T15:22:44;26.40;38.50
10903;DHT22;5504;47.312;11.060;2023-06-14T15:25:10;26.70;39.60
10903;DHT22;5504;47.312;11.060;2023-06-14T15:27:36;26.50;39.00
10903;DHT22;5504;47.312;11.060;2023-06-14T15:30:02;26.50;39.20
10903;DHT22;5504;47.312;11.060;2023-06-14T15:32:28;26.30;38.90
10903;DHT22;5504;47.312;11.060;2023-06-14T15:34:54;26.10;39.30
10903;DHT22;5504;47.312;11.060;2023-06-14T15:37:20;26.20;40.30
10903;DHT22;5504;47.312;11.060;2023-06-14T15:39:45;26.00;38.20
10903;DHT22;5504;47.312;11.060;2023-06-14T15:42:11;25.90;39.70
10903;DHT22;5504;47.312;11.060;2023-06-14T15:44:37;26.00;39.20
10903;DHT22;5504;47.312;11.060;2023-06-14T15:47:03;26.20;40.00
10903;DHT22;5504;47.312;11.060;2023-06-14T15:49:28;25.90;38.80
10903;DHT22;5504;47.312;11.060;2023-06-14T15:51:55;25.70;38.40